Time;durP1;ratioP1;P1;durP2;ratioP2;P2;SDS_P1;SDS_P2;PMS_P1;PMS_P2;Temp;Humidity;BMP_temperature;BMP_pressure;BME280_temperature;BME280_humidity;BME280_pressure;Samples;Min_cycle;Max_cycle;Signal;HPM_P1;HPM_P2
2023/03/22 00:02:24;;;;;;;9.50;3.40;;;;;;;8.79;85.49;100899.78;5032225;28;20041;-83
2023/03/22 00:04:50;;;;;;;5.25;3.38;;;;;;;8.76;85.26;100899.81;5029952;28;20029;-84
2023/03/22 00:07:15;;;;;;;6.15;3.30;;;;;;;8.74;85.20;100899.84;5030316;28;20079;-84
2023/03/22 00:09:40;;;;;;;7.53;3.47;;;;;;;8.71;85.29;100899.91;5032985;28;20492;-84
2023/03/22 00:12:06;;;;;;;6.35;2.92;;;;;;;8.70;85.04;100899.94;5032061;28;20047;-83
2023/03/22 00:14:31;;;;;;;8.32;3.38;;;;;;;8.68;85.17;100899.09;5031057;28;20470;-83
2023/03/22 00:16:56;;;;;;;6.68;3.30;;;;;;;8.65;85.06;100900.88;5030423;28;20032;-83
2023/03/22 00:19:22;;;;;;;5.95;2.85;;;;;;;8.63;85.09;100889.66;5032531;28;20022;-83
2023/03/22 00:21:47;;;;;;;6.93;2.92;;;;;;;8.61;85.14;100894.00;5030666;28;20186;-83
2023/03/22 00:24:12;;;;;;;6.95;3.00;;;;;;;8.58;85.16;100883.69;5032148;28;20025;-83
2023/03/22 00:26:38;;;;;;;6.40;3.28;;;;;;;8.55;85.17;100882.88;5032252;28;20032;-83
2023/03/22 00:29:03;;;;;;;6.45;2.92;;;;;;;8.52;85.34;100876.03;5029671;28;20422;-84
2023/03/22 00:31:28;;;;;;;6.82;3.15;;;;;;;8.51;85.40;100871.72;5030356;28;20032;-83
2023/03/22 00:33:54;;;;;;;7.53;3.13;;;;;;;8.50;85.37;100867.41;5032482;28;20026;-83
2023/03/22 00:36:19;;;;;;;6.90;3.00;;;;;;;8.48;85.44;100867.41;5030967;28;20029;-83
2023/03/22 00:38:44;;;;;;;6.57;2.60;;;;;;;8.47;85.49;100862.25;5032088;28;20499;-84
2023/03/22 00:41:17;;;;;;;6.90;3.00;;;;;;;8.44;85.83;100865.75;5013848;28;20053;-84
2023/03/22 00:43:42;;;;;;;4.65;2.53;;;;;;;8.43;85.75;100852.81;5031275;28;20174;-83
2023/03/22 00:46:09;;;;;;;6.20;2.90;;;;;;;8.42;85.84;100851.97;5029939;28;20488;-83
2023/03/22 00:48:34;;;;;;;7.90;2.88;;;;;;;8.43;85.91;100850.22;5030255;28;20026;-83
2023/03/22 00:50:59;;;;;;;6.47;2.90;;;;;;;8.41;85.75;100839.88;5032985;28;20052;-84
2023/03/22 00:53:25;;;;;;;7.32;2.97;;;;;;;8.40;85.89;100837.28;5028761;28;20041;-83
2023/03/22 00:55:50;;;;;;;6.43;2.90;;;;;;;8.38;85.90;100837.31;5032058;28;20036;-84
2023/03/22 00:58:16;;;;;;;5.50;3.10;;;;;;;8.37;86.05;100840.78;5028836;28;20499;-83
2023/03/22 01:00:43;;;;;;;6.82;3.15;;;;;;;8.35;86.10;100833.06;5028032;28;20025;-83
2023/03/22 01:03:08;;;;;;;6.35;3.22;;;;;;;8.34;86.31;100827.88;5012620;28;20595;-83
2023/03/22 01:05:34;;;;;;;5.85;2.92;;;;;;;8.33;86.40;100827.03;5031198;28;20104;-84
2023/03/22 01:08:07;;;;;;;8.70;3.42;;;;;;;8.32;86.83;100825.31;5029904;28;20021;-84
2023/03/22 01:10:36;;;;;;;5.30;3.15;;;;;;;8.32;86.89;100824.47;4998064;28;20024;-83
2023/03/22 01:13:02;;;;;;;6.22;3.03;;;;;;;8.31;86.82;100817.56;5030648;28;20033;-83
2023/03/22 01:15:27;;;;;;;8.55;3.60;;;;;;;8.30;87.21;100811.53;5030799;28;20037;-83
2023/03/22 01:17:52;;;;;;;7.38;3.10;;;;;;;8.30;86.95;100808.94;5031194;28;20028;-83
2023/03/22 01:20:18;;;;;;;5.75;3.22;;;;;;;8.28;87.58;100802.09;5031247;28;20539;-83
2023/03/22 01:22:43;;;;;;;6.78;3.38;;;;;;;8.31;87.73;100807.19;5029230;28;20107;-83
2023/03/22 01:25:09;;;;;;;7.60;3.50;;;;;;;8.32;87.38;100798.53;5032039;28;20424;-83
2023/03/22 01:27:34;;;;;;;6.15;3.90;;;;;;;8.32;87.93;100793.34;5029330;28;20025;-83
2023/03/22 01:30:00;;;;;;;7.00;3.85;;;;;;;8.33;88.19;100792.47;5029815;28;20064;-83
2023/03/22 01:32:25;;;;;;;6.82;3.70;;;;;;;8.34;88.50;100783.81;5013645;28;20024;-83
2023/03/22 01:34:51;;;;;;;7.82;4.10;;;;;;;8.38;88.56;100779.44;5031291;28;20496;-83
2023/03/22 01:37:16;;;;;;;7.65;3.90;;;;;;;8.40;88.69;100769.88;5030790;28;20032;-83
2023/03/22 01:39:42;;;;;;;7.40;4.05;;;;;;;8.40;89.20;100754.34;5031194;28;20075;-83
2023/03/22 01:42:12;;;;;;;8.13;4.13;;;;;;;8.42;89.21;100748.25;5030881;28;20067;-83
2023/03/22 01:44:42;;;;;;;7.93;4.77;;;;;;;8.44;89.72;100746.50;5031388;28;20025;-83
2023/03/22 01:47:09;;;;;;;9.52;4.68;;;;;;;8.46;90.02;100743.88;5029169;28;20176;-83
2023/03/22 01:49:35;;;;;;;8.25;4.55;;;;;;;8.48;89.89;100736.94;5027719;28;20029;-83
2023/03/22 01:52:10;;;;;;;8.32;4.53;;;;;;;8.47;90.29;100730.03;5031171;28;20025;-83
2023/03/22 01:54:46;;;;;;;9.18;5.30;;;;;;;8.51;90.14;100731.72;5027916;28;20052;-83
2023/03/22 01:57:12;;;;;;;11.35;6.50;;;;;;;8.55;90.12;100730.75;5029433;28;20025;-83
2023/03/22 01:59:39;;;;;;;10.27;6.45;;;;;;;8.55;90.61;100712.59;5028065;28;20021;-83
2023/03/22 02:02:05;;;;;;;13.07;6.97;;;;;;;8.56;90.46;100703.94;5025548;28;20543;-84
2023/03/22 02:04:37;;;;;;;11.07;6.43;;;;;;;8.59;90.50;100706.47;5029357;28;20017;-83
2023/03/22 02:07:08;;;;;;;11.23;6.47;;;;;;;8.63;90.34;100709.84;5030381;28;20030;-84
2023/03/22 02:09:38;;;;;;;10.27;5.97;;;;;;;8.65;90.48;100703.75;5027987;28;20108;-83
2023/03/22 02:12:45;;;;;;;10.45;5.88;;;;;;;8.65;90.08;100703.75;5012532;28;20051;-83
2023/03/22 02:15:26;;;;;;;9.85;6.03;;;;;;;8.68;90.38;100697.66;5026268;28;20091;-83
2023/03/22 02:18:10;;;;;;;8.63;5.72;;;;;;;8.71;89.49;100699.34;5029970;28;20033;-83
2023/03/22 02:20:54;;;;;;;10.80;6.57;;;;;;;8.72;90.25;100688.06;5028997;28;20041;-84
2023/03/22 02:23:28;;;;;;;10.05;6.15;;;;;;;8.74;89.95;100681.09;5029794;28;20117;-84
2023/03/22 02:26:26;;;;;;;9.82;6.13;;;;;;;8.74;89.42;100687.16;5027117;28;20083;-83
2023/03/22 02:29:01;;;;;;;11.20;6.55;;;;;;;8.75;90.45;100686.28;5027419;28;20080;-83
2023/03/22 02:31:47;;;;;;;11.65;6.30;;;;;;;8.75;90.03;100677.63;5031432;28;20079;-84
2023/03/22 02:34:41;;;;;;;10.02;6.60;;;;;;;8.78;89.84;100687.94;5029079;28;20033;-84
2023/03/22 02:37:26;;;;;;;8.93;5.80;;;;;;;8.77;89.93;100676.72;5028208;28;20025;-83
2023/03/22 02:40:07;;;;;;;10.05;6.10;;;;;;;8.78;90.26;100678.44;5029478;28;20123;-84
2023/03/22 02:42:32;;;;;;;11.52;6.20;;;;;;;8.79;90.25;100668.91;5013733;28;20071;-84
2023/03/22 02:45:07;;;;;;;9.30;5.88;;;;;;;8.81;90.30;100677.50;5027463;28;20112;-84
2023/03/22 02:48:00;;;;;;;10.07;5.95;;;;;;;8.79;89.96;100680.16;5029515;28;20033;-83
2023/03/22 02:50:37;;;;;;;11.07;6.22;;;;;;;8.80;90.43;100681.00;5029298;28;20376;-84
2023/03/22 02:53:18;;;;;;;9.98;5.93;;;;;;;8.81;90.08;100672.31;5030935;28;20113;-84
2023/03/22 02:56:09;;;;;;;9.10;5.23;;;;;;;8.83;90.22;100670.56;5028423;28;20025;-84
2023/03/22 02:58:44;;;;;;;7.70;5.05;;;;;;;8.83;90.38;100669.69;5029876;28;20113;-84
2023/03/22 03:01:16;;;;;;;8.98;5.05;;;;;;;8.85;90.18;100668.78;5026040;28;20480;-84
2023/03/22 03:03:46;;;;;;;8.55;5.18;;;;;;;8.85;90.39;100663.59;5030013;28;20022;-83
2023/03/22 03:06:16;;;;;;;7.53;4.88;;;;;;;8.87;90.52;100659.22;5029564;28;20040;-84
2023/03/22 03:08:45;;;;;;;8.25;5.15;;;;;;;8.88;90.42;100657.47;5032463;28;20021;-84
2023/03/22 03:11:11;;;;;;;8.80;5.07;;;;;;;8.91;90.58;100657.41;5015985;28;20032;-84
2023/03/22 03:13:36;;;;;;;8.60;4.60;;;;;;;8.91;90.41;100652.22;5032109;28;20029;-84
2023/03/22 03:16:05;;;;;;;8.68;5.00;;;;;;;8.91;90.18;100657.41;5032160;28;20036;-84
2023/03/22 03:18:45;;;;;;;8.07;4.72;;;;;;;8.92;90.09;100652.19;5032597;28;20469;-84
2023/03/22 03:21:16;;;;;;;7.90;4.95;;;;;;;8.93;90.02;100656.47;5015128;28;20041;-83
2023/03/22 03:23:59;;;;;;;7.47;4.50;;;;;;;8.93;89.83;100651.28;5031161;28;20541;-83
2023/03/22 03:26:53;;;;;;;7.47;4.20;;;;;;;8.93;89.92;100658.25;5032134;28;20029;-83
2023/03/22 03:29:40;;;;;;;7.40;4.43;;;;;;;8.93;89.44;100651.28;5033607;28;20029;-83
2023/03/22 03:32:21;;;;;;;7.28;4.28;;;;;;;8.92;89.48;100649.59;5029797;28;20029;-83
2023/03/22 03:34:51;;;;;;;8.52;3.90;;;;;;;8.93;89.77;100637.50;5032471;28;20033;-84
2023/03/22 03:37:25;;;;;;;8.87;3.97;;;;;;;8.94;89.69;100642.63;5032038;28;20029;-83
2023/03/22 03:40:01;;;;;;;8.40;3.80;;;;;;;8.91;89.56;100642.69;5033791;28;20388;-83
2023/03/22 03:42:28;;;;;;;8.48;3.58;;;;;;;8.91;90.02;100642.69;5031975;28;20108;-84
2023/03/22 03:44:55;;;;;;;7.25;3.75;;;;;;;8.91;89.89;100642.69;5032907;28;20029;-84
2023/03/22 03:47:21;;;;;;;5.78;3.30;;;;;;;8.90;89.93;100643.56;5031337;28;20465;-84
2023/03/22 03:49:47;;;;;;;6.63;3.80;;;;;;;8.91;89.60;100642.69;5015621;28;20053;-83
2023/03/22 03:52:12;;;;;;;7.50;3.50;;;;;;;8.91;89.32;100642.69;5033354;28;20083;-83
2023/03/22 03:54:38;;;;;;;5.60;3.30;;;;;;;8.91;89.36;100642.69;5032983;28;20033;-83
2023/03/22 03:57:03;;;;;;;6.55;3.33;;;;;;;8.89;89.38;100646.22;5033185;28;20113;-84
2023/03/22 03:59:28;;;;;;;5.85;3.30;;;;;;;8.88;89.32;100642.75;5033254;28;20091;-84
2023/03/22 04:01:54;;;;;;;6.15;3.50;;;;;;;8.85;89.31;100653.22;5032603;28;20029;-84
2023/03/22 04:04:26;;;;;;;5.45;3.10;;;;;;;8.82;89.27;100648.09;5032666;28;20029;-84
2023/03/22 04:06:58;;;;;;;;;;;;;;;8.84;88.75;100646.31;5033446;28;20030;-84
2023/03/22 04:09:28;;;;;;;6.70;2.70;;;;;;;8.78;89.27;100649.03;5032362;28;19924;-84
2023/03/22 04:11:55;;;;;;;5.00;2.85;;;;;;;8.75;89.22;100646.50;5033092;28;20033;-84
2023/03/22 04:14:23;;;;;;;6.57;3.22;;;;;;;8.72;89.14;100647.44;5028896;28;20389;-83
2023/03/22 04:16:48;;;;;;;6.03;3.13;;;;;;;8.71;89.21;100650.91;5032106;28;20759;-83
2023/03/22 04:19:14;;;;;;;6.90;3.17;;;;;;;8.68;89.28;100638.00;5030452;28;20037;-83
2023/03/22 04:21:40;;;;;;;5.28;2.92;;;;;;;8.69;89.18;100639.72;5031734;28;20054;-83
2023/03/22 04:24:06;;;;;;;5.88;3.10;;;;;;;8.65;89.25;100636.34;5031421;28;20029;-84
2023/03/22 04:26:32;;;;;;;6.65;2.95;;;;;;;8.63;89.49;100635.50;5032419;28;20029;-83
2023/03/22 04:28:57;;;;;;;5.72;3.17;;;;;;;8.63;89.16;100635.50;5031484;28;20078;-83
2023/03/22 04:31:24;;;;;;;5.68;2.70;;;;;;;8.63;89.29;100637.25;5032542;28;20071;-84
2023/03/22 04:33:53;;;;;;;6.43;3.20;;;;;;;8.63;89.37;100630.31;5030429;28;20037;-84
2023/03/22 04:36:22;;;;;;;6.60;3.05;;;;;;;8.63;89.29;100626.88;5032853;28;20537;-83
2023/03/22 04:38:48;;;;;;;5.18;2.70;;;;;;;8.60;89.43;100632.97;5014717;28;20033;-83
2023/03/22 04:41:13;;;;;;;5.22;2.70;;;;;;;8.58;89.38;100624.38;5030388;28;20052;-83
2023/03/22 04:43:39;;;;;;;7.15;2.88;;;;;;;8.56;89.46;100620.13;5030837;28;20307;-84
2023/03/22 04:46:08;;;;;;;6.43;2.65;;;;;;;8.56;89.12;100626.13;5032663;28;20040;-83
2023/03/22 04:48:38;;;;;;;5.97;2.88;;;;;;;8.56;89.29;100622.72;5013895;28;20028;-84
2023/03/22 04:51:04;;;;;;;5.25;2.95;;;;;;;8.54;89.18;100622.72;5030291;28;20404;-84
2023/03/22 04:53:30;;;;;;;7.60;2.80;;;;;;;8.55;89.19;100618.41;5029398;28;20491;-83
2023/03/22 04:55:58;;;;;;;6.82;2.70;;;;;;;8.54;89.14;100617.53;5031734;28;20029;-84
2023/03/22 04:58:24;;;;;;;4.40;2.60;;;;;;;8.54;89.27;100614.94;5030305;28;20056;-83
2023/03/22 05:00:51;;;;;;;7.90;2.40;;;;;;;8.54;88.98;100612.34;5030169;28;20029;-83
2023/03/22 05:03:19;;;;;;;6.78;2.50;;;;;;;8.54;89.13;100614.94;5031240;28;20052;-84
2023/03/22 05:05:53;;;;;;;7.32;2.80;;;;;;;8.57;89.08;100627.84;5027281;28;20021;-84
2023/03/22 05:08:23;;;;;;;5.30;2.65;;;;;;;8.56;88.97;100615.78;5030558;28;20025;-83
2023/03/22 05:10:51;;;;;;;5.82;2.70;;;;;;;8.55;88.95;100621.84;5028882;28;20048;-83
2023/03/22 05:13:17;;;;;;;5.53;2.40;;;;;;;8.54;89.28;100617.53;5014438;28;20501;-83
2023/03/22 05:15:42;;;;;;;5.82;2.50;;;;;;;8.58;88.86;100623.53;5030341;28;20484;-84
2023/03/22 05:18:08;;;;;;;5.35;2.65;;;;;;;8.57;88.95;100617.47;5031326;28;20079;-83
2023/03/22 05:20:34;;;;;;;8.45;2.78;;;;;;;8.58;88.74;100611.41;5030782;28;20033;-83
2023/03/22 05:23:01;;;;;;;5.97;2.50;;;;;;;8.60;88.65;100608.81;5031828;28;20029;-83
2023/03/22 05:25:27;;;;;;;6.38;2.20;;;;;;;8.61;88.46;100608.75;5013465;28;20473;-84
2023/03/22 05:27:53;;;;;;;6.75;2.40;;;;;;;8.61;88.46;100613.09;5030953;28;20067;-83
2023/03/22 05:30:18;;;;;;;5.40;2.25;;;;;;;8.61;88.42;100610.50;5030212;28;21046;-83
2023/03/22 05:32:44;;;;;;;4.30;2.30;;;;;;;8.60;88.19;100596.69;5029000;28;20067;-83
2023/03/22 05:35:10;;;;;;;5.65;2.15;;;;;;;8.60;88.34;100601.03;5030460;28;20472;-83
2023/03/22 05:37:35;;;;;;;6.75;2.30;;;;;;;8.58;88.12;100603.63;5029331;28;20040;-83
2023/03/22 05:40:04;;;;;;;6.50;2.10;;;;;;;8.58;88.15;100611.41;5031114;28;20029;-84
2023/03/22 05:42:29;;;;;;;6.13;2.05;;;;;;;8.58;87.86;100614.00;5011004;28;20534;-83
2023/03/22 05:44:54;;;;;;;6.75;2.03;;;;;;;8.58;87.75;100615.75;5029131;28;20034;-83
2023/03/22 05:47:20;;;;;;;5.50;2.10;;;;;;;8.59;87.82;100614.88;5030640;28;20068;-83
2023/03/22 05:49:46;;;;;;;6.45;2.22;;;;;;;8.58;87.73;100606.22;5012296;28;20079;-83
2023/03/22 05:52:11;;;;;;;6.88;2.58;;;;;;;8.56;87.79;100600.22;5029530;28;20532;-83
2023/03/22 05:54:37;;;;;;;4.65;2.05;;;;;;;8.57;87.67;100596.75;5030093;28;20033;-83
2023/03/22 05:57:02;;;;;;;6.25;2.15;;;;;;;8.54;87.54;100591.59;5011280;28;20032;-84
2023/03/22 05:59:27;;;;;;;4.30;1.80;;;;;;;8.55;87.67;100603.69;5028889;28;20065;-84
2023/03/22 06:01:53;;;;;;;5.43;2.10;;;;;;;8.57;87.34;100607.09;5028147;28;20088;-84
2023/03/22 06:04:19;;;;;;;5.20;2.03;;;;;;;8.58;87.26;100607.97;5028030;28;20057;-83
2023/03/22 06:06:45;;;;;;;6.38;2.20;;;;;;;8.57;87.43;100606.28;5011017;28;20429;-84
2023/03/22 06:09:10;;;;;;;4.20;1.92;;;;;;;8.61;87.32;100610.50;5029627;28;20029;-83
2023/03/22 06:11:35;;;;;;;3.97;1.90;;;;;;;8.61;87.55;100613.09;5028753;28;20152;-83
2023/03/22 06:14:00;;;;;;;5.10;2.13;;;;;;;8.62;87.09;100605.28;5028099;28;20087;-83
2023/03/22 06:16:26;;;;;;;5.90;1.83;;;;;;;8.63;87.48;100607.00;5027958;28;20109;-84
2023/03/22 06:18:52;;;;;;;5.00;1.70;;;;;;;8.65;87.25;100604.34;5029881;28;20026;-83
2023/03/22 06:21:17;;;;;;;7.03;2.30;;;;;;;8.68;87.00;100603.44;5029136;28;20205;-84
2023/03/22 06:23:43;;;;;;;6.30;2.05;;;;;;;8.67;87.02;100601.75;5031016;28;20079;-84
2023/03/22 06:26:10;;;;;;;6.22;2.42;;;;;;;8.69;86.84;100602.56;5028651;28;20033;-84
2023/03/22 06:28:36;;;;;;;3.78;1.90;;;;;;;8.69;87.23;100599.97;5012995;28;20034;-84
2023/03/22 06:31:06;;;;;;;6.53;2.03;;;;;;;8.69;86.84;100602.56;5028486;28;20440;-84
2023/03/22 06:33:33;;;;;;;4.80;2.03;;;;;;;8.70;86.95;100601.69;5027697;28;20025;-83
2023/03/22 06:35:59;;;;;;;6.80;2.45;;;;;;;8.71;87.07;100598.19;5030288;28;20048;-84
2023/03/22 06:38:24;;;;;;;5.93;2.13;;;;;;;8.72;86.95;100600.75;5025753;28;20559;-83
2023/03/22 06:40:50;;;;;;;6.20;2.03;;;;;;;8.75;87.06;100600.69;5027506;28;20026;-84
2023/03/22 06:43:15;;;;;;;7.05;2.30;;;;;;;8.79;86.90;100604.06;5030342;28;20025;-83
2023/03/22 06:45:40;;;;;;;6.72;2.03;;;;;;;8.84;87.09;100599.63;5024366;28;20037;-83
2023/03/22 06:48:06;;;;;;;8.20;2.15;;;;;;;8.90;86.71;100604.66;5035097;28;20481;-83
2023/03/22 06:50:31;;;;;;;5.15;2.75;;;;;;;8.93;86.83;100599.41;5029910;28;20021;-84
2023/03/22 06:52:56;;;;;;;6.55;2.25;;;;;;;8.96;86.53;100609.72;5028250;28;20476;-84
2023/03/22 06:55:22;;;;;;;5.07;2.08;;;;;;;9.00;86.67;100609.66;5032368;28;20450;-84
2023/03/22 06:57:47;;;;;;;4.30;2.03;;;;;;;9.04;86.95;100611.28;5028593;28;20647;-83
2023/03/22 07:00:14;;;;;;;7.18;2.40;;;;;;;9.09;86.29;100604.25;5027880;28;20048;-84
2023/03/22 07:02:39;;;;;;;7.50;2.50;;;;;;;9.14;86.08;100597.22;5029798;28;20069;-83
2023/03/22 07:05:05;;;;;;;7.13;2.63;;;;;;;9.17;86.28;100607.53;5031502;28;20057;-83
2023/03/22 07:07:30;;;;;;;11.50;2.40;;;;;;;9.20;86.42;100610.06;5032515;28;20048;-83
2023/03/22 07:09:55;;;;;;;5.75;2.17;;;;;;;9.29;86.13;100606.38;5032647;28;20043;-84
2023/03/22 07:12:21;;;;;;;6.90;2.55;;;;;;;9.38;85.88;100602.72;5030399;28;20057;-83
2023/03/22 07:14:46;;;;;;;5.75;2.58;;;;;;;9.46;85.05;100600.75;5030357;28;20033;-83
2023/03/22 07:17:13;;;;;;;5.32;2.65;;;;;;;9.51;85.21;100601.50;5030636;28;20100;-83
2023/03/22 07:19:39;;;;;;;6.95;2.47;;;;;;;9.56;84.82;100601.38;5013129;28;20037;-84
2023/03/22 07:22:04;;;;;;;5.97;3.20;;;;;;;9.56;84.72;100604.81;5028840;28;20049;-83
2023/03/22 07:24:29;;;;;;;8.30;2.55;;;;;;;9.56;84.14;100599.63;5026829;28;20134;-82
2023/03/22 07:26:55;;;;;;;8.85;3.08;;;;;;;9.59;83.85;100608.22;5031578;28;20022;-81
2023/03/22 07:29:20;;;;;;;8.05;2.88;;;;;;;9.58;83.54;100602.19;5031081;28;20045;-83
2023/03/22 07:31:45;;;;;;;8.07;2.90;;;;;;;9.59;83.98;100598.72;5028849;28;20099;-81
2023/03/22 07:34:11;;;;;;;6.80;2.80;;;;;;;9.61;83.44;100606.44;5031538;28;20489;-83
2023/03/22 07:36:37;;;;;;;7.72;3.00;;;;;;;9.65;83.25;100608.09;5029462;28;20111;-82
2023/03/22 07:39:04;;;;;;;7.35;2.78;;;;;;;9.70;82.81;100611.44;5029831;28;20033;-82
2023/03/22 07:41:29;;;;;;;6.78;3.00;;;;;;;9.74;82.41;100612.19;5029105;28;20035;-81
2023/03/22 07:43:54;;;;;;;9.40;3.30;;;;;;;9.77;82.70;100620.75;5030848;28;20388;-83
2023/03/22 07:46:20;;;;;;;11.65;2.92;;;;;;;9.79;81.97;100605.97;5029933;28;20117;-82
2023/03/22 07:48:45;;;;;;;6.85;2.85;;;;;;;9.82;82.14;100605.91;5026857;28;20044;-81
2023/03/22 07:51:10;;;;;;;7.07;2.90;;;;;;;9.86;82.26;100610.13;5028596;28;20033;-83
2023/03/22 07:53:36;;;;;;;7.85;2.70;;;;;;;9.91;81.85;100612.59;5029738;28;20397;-83
2023/03/22 07:56:03;;;;;;;7.78;2.42;;;;;;;9.99;81.82;100618.44;5029971;28;20029;-84
2023/03/22 07:58:28;;;;;;;6.75;2.65;;;;;;;10.08;80.68;100627.72;5027877;28;20033;-83
2023/03/22 08:00:54;;;;;;;7.10;2.55;;;;;;;10.15;81.18;100616.28;5027332;28;20482;-83
2023/03/22 08:03:20;;;;;;;7.78;2.78;;;;;;;10.24;79.84;100620.38;5027859;28;20052;-83
2023/03/22 08:05:47;;;;;;;5.88;2.70;;;;;;;10.31;79.86;100618.44;5029613;28;20074;-83
2023/03/22 08:08:12;;;;;;;6.18;2.20;;;;;;;10.36;79.15;100600.09;5031908;28;20060;-81
2023/03/22 08:10:37;;;;;;;4.35;2.10;;;;;;;10.41;79.20;100612.13;5036391;28;20115;-82
2023/03/22 08:13:03;;;;;;;6.03;2.25;;;;;;;10.45;78.81;100615.50;5036288;28;20040;-82
2023/03/22 08:15:28;;;;;;;7.78;2.10;;;;;;;10.45;77.43;100613.72;5038039;28;20045;-83
2023/03/22 08:17:57;;;;;;;6.10;2.10;;;;;;;10.46;77.25;100614.59;5035558;28;20432;-83
2023/03/22 08:20:26;;;;;;;7.65;2.03;;;;;;;10.43;77.21;100625.91;5036124;28;20030;-84
2023/03/22 08:22:52;;;;;;;7.82;1.90;;;;;;;10.45;76.77;100629.34;5037442;28;20113;-82
2023/03/22 08:25:17;;;;;;;6.60;2.05;;;;;;;10.48;77.16;100626.66;5033006;28;20032;-84
2023/03/22 08:27:42;;;;;;;5.68;1.80;;;;;;;10.55;76.60;100632.53;5032867;28;21374;-83
2023/03/22 08:30:08;;;;;;;6.95;1.95;;;;;;;10.57;75.43;100624.69;5034610;28;20032;-83
2023/03/22 08:32:34;;;;;;;6.82;2.30;;;;;;;10.61;75.61;100636.69;5039651;28;20040;-84
2023/03/22 08:34:59;;;;;;;6.15;1.40;;;;;;;10.62;75.43;100633.19;5033403;28;20060;-84
2023/03/22 08:37:25;;;;;;;5.18;1.70;;;;;;;10.65;75.28;100612.28;5040013;28;20060;-85
2023/03/22 08:39:50;;;;;;;7.88;1.80;;;;;;;10.68;75.63;100614.81;5028705;28;20052;-83
2023/03/22 08:42:15;;;;;;;4.68;1.60;;;;;;;10.71;74.88;100612.13;5031813;28;20140;-84
2023/03/22 08:44:41;;;;;;;7.00;1.80;;;;;;;10.76;76.18;100609.38;5034999;28;20504;-82
2023/03/22 08:47:06;;;;;;;6.60;1.70;;;;;;;10.82;75.83;100604.00;5035110;28;20122;-81
2023/03/22 08:49:31;;;;;;;7.15;1.70;;;;;;;10.86;75.59;100605.59;5034667;28;20030;-81
2023/03/22 08:51:57;;;;;;;5.82;1.63;;;;;;;10.93;76.22;100611.47;5036210;28;20048;-84
2023/03/22 08:54:23;;;;;;;6.03;1.77;;;;;;;10.96;74.81;100597.50;5027756;28;20037;-81
2023/03/22 08:56:49;;;;;;;6.80;1.83;;;;;;;11.01;74.60;100604.25;5034727;28;20172;-81
2023/03/22 08:59:15;;;;;;;5.85;1.90;;;;;;;11.07;74.67;100595.41;5034723;28;20104;-82
2023/03/22 09:01:40;;;;;;;6.85;1.50;;;;;;;11.14;73.57;100606.47;5033969;28;20086;-82
2023/03/22 09:04:05;;;;;;;4.82;1.50;;;;;;;11.16;73.76;100602.06;5035266;28;20040;-81
2023/03/22 09:06:31;;;;;;;4.38;1.60;;;;;;;11.23;73.17;100614.84;5028306;28;20091;-81
2023/03/22 09:08:56;;;;;;;6.38;1.58;;;;;;;11.24;73.29;100606.13;5007722;28;20025;-83
2023/03/22 09:11:22;;;;;;;9.77;1.50;;;;;;;11.30;72.76;100602.47;5031752;28;20029;-80
2023/03/22 09:13:49;;;;;;;5.97;1.58;;;;;;;11.37;72.15;100593.56;5035325;28;20500;-81
2023/03/22 09:16:15;;;;;;;5.53;1.40;;;;;;;11.38;72.46;100597.88;5035862;28;20472;-82
2023/03/22 09:18:41;;;;;;;8.35;1.40;;;;;;;11.43;71.75;100592.50;5034911;28;20112;-82
2023/03/22 09:21:07;;;;;;;5.25;1.30;;;;;;;11.45;70.92;100588.09;5027857;28;20120;-83
2023/03/22 09:23:34;;;;;;;4.80;1.25;;;;;;;11.49;70.94;100584.50;5035401;28;20087;-83
2023/03/22 09:26:02;;;;;;;6.35;1.42;;;;;;;11.53;71.46;100580.84;5030973;28;20065;-82
2023/03/22 09:28:28;;;;;;;5.88;1.30;;;;;;;11.58;71.39;100583.34;5034650;28;20025;-83
2023/03/22 09:30:53;;;;;;;5.05;1.38;;;;;;;11.65;70.87;100584.81;5031579;28;20048;-83
2023/03/22 09:33:18;;;;;;;7.47;1.52;;;;;;;11.74;72.76;100585.41;5033002;28;20106;-83
2023/03/22 09:35:44;;;;;;;5.20;1.27;;;;;;;11.79;70.11;100570.44;5032748;28;20116;-83
2023/03/22 09:38:11;;;;;;;5.07;1.30;;;;;;;11.78;69.89;100581.81;5032780;28;20068;-82
2023/03/22 09:40:59;;;;;;;3.85;1.25;;;;;;;11.75;69.45;100577.53;5035508;28;20032;-84
2023/03/22 09:43:25;;;;;;;8.35;1.40;;;;;;;11.75;68.84;100577.53;5032607;28;20029;-82
2023/03/22 09:45:51;;;;;;;4.68;1.48;;;;;;;11.73;70.16;100581.94;5034221;28;20033;-82
2023/03/22 09:48:21;;;;;;;5.32;1.20;;;;;;;11.76;69.73;100588.81;5011365;28;20171;-82
2023/03/22 09:50:52;;;;;;;5.65;1.35;;;;;;;11.76;70.03;100576.63;5033929;28;20103;-82
2023/03/22 09:53:19;;;;;;;;;;;;;;;11.80;69.80;100572.16;5035661;28;20086;-83
2023/03/22 09:55:53;;;;;;;4.78;1.63;;;;;;;11.76;68.38;100573.19;5033219;28;19974;-81
2023/03/22 09:58:26;;;;;;;5.53;1.23;;;;;;;11.73;68.54;100570.69;5028034;28;20044;-82
2023/03/22 10:00:55;;;;;;;4.78;1.10;;;;;;;11.66;69.00;100583.91;5012722;28;20043;-82
2023/03/22 10:03:59;;;;;;;3.70;1.20;;;;;;;11.67;69.14;100567.38;5030480;28;20072;-82
2023/03/22 10:06:25;;;;;;;7.60;1.38;;;;;;;11.65;68.69;100579.59;5030401;28;20029;-83
2023/03/22 10:09:24;;;;;;;4.60;1.10;;;;;;;11.63;68.78;100589.22;5030771;28;20119;-83
2023/03/22 10:11:57;;;;;;;6.30;1.38;;;;;;;11.61;68.83;100578.03;4989087;28;20496;-82
2023/03/22 10:14:39;;;;;;;4.07;1.20;;;;;;;11.58;68.86;100575.53;5029142;28;20059;-83
2023/03/22 10:17:12;;;;;;;6.03;1.25;;;;;;;11.57;68.19;100580.75;5031001;28;20397;-83
2023/03/22 10:20:03;;;;;;;4.75;1.20;;;;;;;11.55;68.46;100573.00;5032011;28;20033;-83
2023/03/22 10:22:33;;;;;;;5.55;1.13;;;;;;;11.50;68.31;100574.91;5033130;28;20052;-83
2023/03/22 10:24:59;;;;;;;5.57;1.10;;;;;;;11.45;68.17;100576.81;5033228;28;20082;-83
2023/03/22 10:27:27;;;;;;;5.28;1.13;;;;;;;11.42;68.90;100576.94;5033709;28;20063;-82
2023/03/22 10:30:00;;;;;;;4.28;1.20;;;;;;;11.39;68.51;100576.13;5035284;28;20036;-82
2023/03/22 10:32:35;;;;;;;5.40;1.20;;;;;;;11.38;69.21;100581.38;5032576;28;20346;-82
2023/03/22 10:35:01;;;;;;;4.05;1.10;;;;;;;11.38;69.52;100579.66;5034626;28;20032;-83
2023/03/22 10:37:32;;;;;;;5.85;1.40;;;;;;;11.36;69.42;100589.25;5034521;28;20043;-82
2023/03/22 10:40:00;;;;;;;4.38;1.13;;;;;;;11.30;70.55;100584.25;5030230;28;20056;-83
2023/03/22 10:42:28;;;;;;;5.95;1.10;;;;;;;11.25;71.61;100591.38;5036717;28;20033;-82
2023/03/22 10:44:59;;;;;;;5.13;1.20;;;;;;;11.23;72.14;100603.59;5030599;28;20036;-83
2023/03/22 10:47:41;;;;;;;5.57;1.20;;;;;;;11.22;72.03;100594.06;5034970;28;20037;-82
2023/03/22 10:50:14;;;;;;;4.90;1.10;;;;;;;11.19;72.12;100601.97;5013346;28;20345;-82
2023/03/22 10:53:07;;;;;;;4.65;1.17;;;;;;;11.17;72.60;100603.78;5035132;28;20531;-80
2023/03/22 10:55:39;;;;;;;5.05;1.10;;;;;;;11.08;74.74;100600.59;5036572;28;20360;-78
2023/03/22 10:58:16;;;;;;;3.83;1.00;;;;;;;11.07;75.09;100596.28;5030451;28;20025;-80
2023/03/22 11:00:55;;;;;;;5.15;1.30;;;;;;;11.12;74.56;100596.13;5036027;28;20033;-79
2023/03/22 11:03:32;;;;;;;5.90;1.40;;;;;;;11.17;75.44;100598.56;5032761;28;20056;-80
2023/03/22 11:06:10;;;;;;;5.22;1.10;;;;;;;11.18;75.61;100602.88;5031872;28;20448;-79
2023/03/22 11:08:51;;;;;;;5.45;1.10;;;;;;;11.18;75.95;100595.06;5031917;28;20045;-80
2023/03/22 11:11:31;;;;;;;5.07;1.23;;;;;;;11.15;75.61;100597.75;5032346;28;20098;-81
2023/03/22 11:14:19;;;;;;;3.72;1.20;;;;;;;11.13;75.52;100596.94;5030447;28;20295;-81
2023/03/22 11:16:49;;;;;;;4.47;1.20;;;;;;;11.04;76.38;100593.75;5028522;28;20078;-81
2023/03/22 11:19:22;;;;;;;6.43;1.33;;;;;;;11.06;76.60;100602.38;5033349;28;20032;-82
2023/03/22 11:21:50;;;;;;;4.93;1.20;;;;;;;10.97;77.85;100592.25;5031198;28;20060;-80
2023/03/22 11:24:15;;;;;;;6.75;1.38;;;;;;;10.92;78.45;100595.00;5031002;28;20136;-80
2023/03/22 11:26:40;;;;;;;4.80;1.05;;;;;;;10.92;79.34;100599.34;5030021;28;20041;-80
2023/03/22 11:29:12;;;;;;;3.13;1.05;;;;;;;10.91;79.56;100602.84;5034337;28;20620;-80
2023/03/22 11:31:53;;;;;;;5.30;1.65;;;;;;;10.88;79.41;100593.38;5036468;28;20493;-80
2023/03/22 11:34:20;;;;;;;8.07;1.58;;;;;;;10.87;80.31;100596.03;5034933;28;20073;-81
2023/03/22 11:36:53;;;;;;;5.47;1.38;;;;;;;10.86;79.27;100591.72;5033505;28;20090;-81
2023/03/22 11:39:20;;;;;;;5.93;1.58;;;;;;;10.87;79.91;100593.44;5035689;28;20025;-80
2023/03/22 11:41:45;;;;;;;3.70;1.20;;;;;;;10.86;80.20;100584.75;5030766;28;20164;-80